Airfield :
LOGIN :

Register | Disclaimer

   EN    FR    IT 

 










Legend :    VFR   Marginal VFR   IFR   Intensive IFR   Very Intensive IFR
Visi :
Ceiling :
>= 8 km
>= 3000ft
5 to 8 km
1000 to 3000 ft
1500m to 5 km
500 to 1000 ft
800 to 1500m
200 to 500 ft
< 800m
< 200 ft
Symbols :   Thunderstorms  Fog  Heavy snow  Heavy precipitations  Wind > 20 kt
SIGMETs :     Misc.  Thunderstorms  Icing  Turbulence  Mountain Waves  Volcanic Ashes






- Airport Elevation : 794 ft


LKCV - Čáslav Air Base

CURRENT METAR :
  • 270700Z VRB01KT CAVOK 15/13 Q1017 NOSIG RMK BLU BLU

EXPIRED METARs :
  • 270630Z 00000KT 8000 NSC 15/13 Q1017 NOSIG RMK BLU BLU
  • 270600Z 13002KT 8000 NSC 13/12 Q1017 NOSIG RMK BLU BLU
  • 270530Z 09003KT 8000 SCT049 BKN060 12/11 Q1017 NOSIG RMK BLU BLU
  • 270500Z 11003KT 8000 SCT048 BKN060 12/11 Q1017 NOSIG RMK BLU BLU
  • 270430Z VRB01KT 8000 FEW046 SCT130 12/11 Q1017 NOSIG RMK BLU BLU

TAF TAF LKCV
Valid from the 27 at 06:00 until the 28 at 06:00 UTC


270500Z 2706/2806 VRB02KT 9999 BKN040
TEMPO 2714/2720 30007KT 7000 SHRA BKN025TCU
BECMG 2719/2721 28005KT
PROB30 2802/2806 VRB02KT 5000 BR SCT015



MET'MAP, your aeronautical weather chart ! - Copyright ORBIFLY December 2007 - Disclaimer

ORBIFLY MET'MAP TEAM :

Programming & Development : Alexandra Zaïnal
Concept & original design : Baudouin d'Aumeries
Assistance for programming : Marc-Olivier Méhu
Technical & hardware support : Manuel Goepfert

Contact : metmap@orbifly.com




SOURCES & CREDITS :

   NOAA